Terminal Aerodrome Forecast
Issued by NWS

Current Version | Previous Version | Graphics & Text | Print | Product List | Glossary On
Versions: 1 2 3 4 5 6 7 8 9 10 11 12 13 14 15 16 17 18 19 20 21 22 23 24 25 26 27 28 29 30
000
FTUS41 KRNK 251126
TAFLWB
TAF
KLWB 251126Z 2512/2612 28007KT P6SM BKN035
     FM252000 25004KT P6SM SCT025 OVC200
     FM260500 04002KT 4SM -SN BR OVC025
     FM260800 02004KT 2SM -SN BR OVC015=

USA.gov is the U.S. government's official web portal to all federal, state and local government web resources and services.